sensor_id;sensor_type;location;lat;lon;timestamp;pressure;altitude;pressure_sealevel;temperature;humidity
23170;BME280;11753;43.144;24.714;2023-05-02T00:00:15;99991.50;;;10.73;100.00
23170;BME280;11753;43.144;24.714;2023-05-02T00:01:16;99996.03;;;10.81;100.00
23170;BME280;11753;43.144;24.714;2023-05-02T00:02:17;99999.50;;;10.81;100.00
23170;BME280;11753;43.144;24.714;2023-05-02T00:03:18;99997.84;;;10.80;100.00
23170;BME280;11753;43.144;24.714;2023-05-02T00:04:19;99999.50;;;10.81;99.95
23170;BME280;11753;43.144;24.714;2023-05-02T00:05:20;99993.41;;;10.81;99.64
23170;BME280;11753;43.144;24.714;2023-05-02T00:06:21;100003.69;;;10.74;99.59
23170;BME280;11753;43.144;24.714;2023-05-02T00:07:25;100000.81;;;10.67;99.79
23170;BME280;11753;43.144;24.714;2023-05-02T00:08:26;99994.72;;;10.67;100.00
23170;BME280;11753;43.144;24.714;2023-05-02T00:09:28;100010.00;;;10.54;100.00
23170;BME280;11753;43.144;24.714;2023-05-02T00:10:29;100007.66;;;10.51;100.00
23170;BME280;11753;43.144;24.714;2023-05-02T00:11:30;100001.69;;;10.58;100.00
23170;BME280;11753;43.144;24.714;2023-05-02T00:12:31;100003.06;;;10.53;100.00
23170;BME280;11753;43.144;24.714;2023-05-02T00:13:32;99995.19;;;10.53;100.00
23170;BME280;11753;43.144;24.714;2023-05-02T00:14:33;100003.50;;;10.48;100.00
23170;BME280;11753;43.144;24.714;2023-05-02T00:15:34;100002.81;;;10.46;100.00
23170;BME280;11753;43.144;24.714;2023-05-02T00:16:35;100002.13;;;10.34;100.00
23170;BME280;11753;43.144;24.714;2023-05-02T00:17:39;100004.09;;;10.32;100.00
23170;BME280;11753;43.144;24.714;2023-05-02T00:18:41;100002.41;;;10.41;100.00
23170;BME280;11753;43.144;24.714;2023-05-02T00:19:42;100002.97;;;10.35;100.00
23170;BME280;11753;43.144;24.714;2023-05-02T00:20:43;99998.00;;;10.32;100.00
23170;BME280;11753;43.144;24.714;2023-05-02T00:21:46;99992.19;;;10.28;100.00
23170;BME280;11753;43.144;24.714;2023-05-02T00:22:49;99994.97;;;10.17;100.00
23170;BME280;11753;43.144;24.714;2023-05-02T00:23:52;100000.38;;;10.15;100.00
23170;BME280;11753;43.144;24.714;2023-05-02T00:24:56;99999.41;;;10.07;100.00
23170;BME280;11753;43.144;24.714;2023-05-02T00:25:58;100005.78;;;10.04;100.00
23170;BME280;11753;43.144;24.714;2023-05-02T00:26:59;100004.81;;;9.96;100.00
23170;BME280;11753;43.144;24.714;2023-05-02T00:28:00;99999.13;;;9.90;100.00
23170;BME280;11753;43.144;24.714;2023-05-02T00:29:01;99996.09;;;9.95;100.00
23170;BME280;11753;43.144;24.714;2023-05-02T00:30:02;100003.84;;;9.97;100.00
23170;BME280;11753;43.144;24.714;2023-05-02T00:31:04;100003.84;;;9.97;100.00
23170;BME280;11753;43.144;24.714;2023-05-02T00:32:05;99999.97;;;9.91;100.00
23170;BME280;11753;43.144;24.714;2023-05-02T00:33:06;100008.56;;;9.93;100.00
23170;BME280;11753;43.144;24.714;2023-05-02T00:34:10;100005.25;;;10.01;100.00
23170;BME280;11753;43.144;24.714;2023-05-02T00:35:12;99999.97;;;10.01;100.00
23170;BME280;11753;43.144;24.714;2023-05-02T00:36:17;100001.91;;;9.99;100.00
23170;BME280;11753;43.144;24.714;2023-05-02T00:37:19;100010.75;;;9.98;100.00
23170;BME280;11753;43.144;24.714;2023-05-02T00:38:20;100007.72;;;9.92;100.00
23170;BME280;11753;43.144;24.714;2023-05-02T00:39:21;100014.38;;;9.97;100.00
23170;BME280;11753;43.144;24.714;2023-05-02T00:40:22;100009.41;;;9.93;100.00
23170;BME280;11753;43.144;24.714;2023-05-02T00:41:23;100011.19;;;10.03;100.00
23170;BME280;11753;43.144;24.714;2023-05-02T00:42:24;100011.03;;;10.04;100.00
23170;BME280;11753;43.144;24.714;2023-05-02T00:43:29;100012.16;;;10.02;100.00
23170;BME280;11753;43.144;24.714;2023-05-02T00:44:30;100012.16;;;10.02;100.00
23170;BME280;11753;43.144;24.714;2023-05-02T00:45:31;100002.47;;;10.02;100.00
23170;BME280;11753;43.144;24.714;2023-05-02T00:46:32;100011.88;;;9.95;100.00
23170;BME280;11753;43.144;24.714;2023-05-02T00:47:34;100016.03;;;9.98;100.00
23170;BME280;11753;43.144;24.714;2023-05-02T00:48:35;100015.16;;;10.07;100.00
23170;BME280;11753;43.144;24.714;2023-05-02T00:49:36;100012.31;;;10.00;100.00
23170;BME280;11753;43.144;24.714;2023-05-02T00:50:39;100013.09;;;10.10;100.00
23170;BME280;11753;43.144;24.714;2023-05-02T00:51:41;100009.34;;;10.13;100.00
23170;BME280;11753;43.144;24.714;2023-05-02T00:52:42;100007.16;;;10.08;100.00
23170;BME280;11753;43.144;24.714;2023-05-02T00:53:43;100005.50;;;9.98;100.00
23170;BME280;11753;43.144;24.714;2023-05-02T00:54:44;100009.38;;;10.03;100.00
23170;BME280;11753;43.144;24.714;2023-05-02T00:55:45;100009.91;;;10.07;100.00
23170;BME280;11753;43.144;24.714;2023-05-02T00:56:47;100004.38;;;10.10;100.00
23170;BME280;11753;43.144;24.714;2023-05-02T00:57:49;100016.84;;;10.08;100.00
23170;BME280;11753;43.144;24.714;2023-05-02T00:58:50;100007.13;;;10.18;100.00
23170;BME280;11753;43.144;24.714;2023-05-02T00:59:51;100011.28;;;10.20;100.00
23170;BME280;11753;43.144;24.714;2023-05-02T01:02:56;100005.19;;;10.20;100.00
23170;BME280;11753;43.144;24.714;2023-05-02T01:05:05;100005.19;;;10.20;100.00
23170;BME280;11753;43.144;24.714;2023-05-02T01:06:23;100012.41;;;10.18;100.00
23170;BME280;11753;43.144;24.714;2023-05-02T01:10:10;100014.06;;;10.19;100.00
23170;BME280;11753;43.144;24.714;2023-05-02T01:11:18;100003.53;;;10.19;100.00
23170;BME280;11753;43.144;24.714;2023-05-02T01:12:27;100006.00;;;10.20;100.00
23170;BME280;11753;43.144;24.714;2023-05-02T01:13:34;100004.38;;;10.19;100.00
23170;BME280;11753;43.144;24.714;2023-05-02T01:14:46;100010.06;;;10.05;100.00
23170;BME280;11753;43.144;24.714;2023-05-02T01:15:50;100005.09;;;10.02;100.00
23170;BME280;11753;43.144;24.714;2023-05-02T01:16:53;100012.97;;;10.12;100.00
23170;BME280;11753;43.144;24.714;2023-05-02T01:17:57;100013.09;;;10.10;100.00
23170;BME280;11753;43.144;24.714;2023-05-02T01:19:00;100014.22;;;10.08;100.00
23170;BME280;11753;43.144;24.714;2023-05-02T01:20:07;100010.22;;;10.04;100.00
23170;BME280;11753;43.144;24.714;2023-05-02T01:21:10;100003.56;;;10.00;100.00
23170;BME280;11753;43.144;24.714;2023-05-02T01:22:12;100014.66;;;9.93;100.00
23170;BME280;11753;43.144;24.714;2023-05-02T01:24:06;100012.00;;;9.84;100.00
23170;BME280;11753;43.144;24.714;2023-05-02T01:24:53;100007.44;;;9.76;100.00
23170;BME280;11753;43.144;24.714;2023-05-02T01:26:14;100005.78;;;9.75;100.00
23170;BME280;11753;43.144;24.714;2023-05-02T01:27:30;100006.22;;;9.80;100.00
23170;BME280;11753;43.144;24.714;2023-05-02T01:28:58;100004.13;;;9.74;100.00
23170;BME280;11753;43.144;24.714;2023-05-02T01:30:01;99997.34;;;9.62;100.00
23170;BME280;11753;43.144;24.714;2023-05-02T01:31:04;100001.91;;;9.70;100.00
23170;BME280;11753;43.144;24.714;2023-05-02T01:32:07;100003.72;;;9.69;100.00
23170;BME280;11753;43.144;24.714;2023-05-02T01:33:10;100007.44;;;9.76;100.00
23170;BME280;11753;43.144;24.714;2023-05-02T01:34:13;99995.97;;;9.77;100.00
23170;BME280;11753;43.144;24.714;2023-05-02T01:35:17;100003.03;;;9.77;100.00
23170;BME280;11753;43.144;24.714;2023-05-02T01:36:18;100007.19;;;9.79;100.00
23170;BME280;11753;43.144;24.714;2023-05-02T01:37:21;100005.50;;;9.78;100.00
23170;BME280;11753;43.144;24.714;2023-05-02T01:38:23;100011.72;;;9.77;100.00
23170;BME280;11753;43.144;24.714;2023-05-02T01:39:26;100004.97;;;9.65;100.00
23170;BME280;11753;43.144;24.714;2023-05-02T01:40:28;100007.75;;;9.73;100.00
23170;BME280;11753;43.144;24.714;2023-05-02T01:41:31;100002.06;;;9.68;100.00
23170;BME280;11753;43.144;24.714;2023-05-02T01:42:35;100006.63;;;9.66;100.00
23170;BME280;11753;43.144;24.714;2023-05-02T01:43:38;100008.28;;;9.67;100.00
23170;BME280;11753;43.144;24.714;2023-05-02T01:44:41;100009.66;;;9.61;100.00
23170;BME280;11753;43.144;24.714;2023-05-02T01:45:44;100010.78;;;9.59;100.00
23170;BME280;11753;43.144;24.714;2023-05-02T01:46:47;100010.34;;;9.63;100.00
23170;BME280;11753;43.144;24.714;2023-05-02T01:47:49;100008.28;;;9.67;100.00
23170;BME280;11753;43.144;24.714;2023-05-02T01:48:51;100016.84;;;9.69;100.00
23170;BME280;11753;43.144;24.714;2023-05-02T01:49:53;100010.63;;;9.70;100.00
23170;BME280;11753;43.144;24.714;2023-05-02T01:50:55;100005.38;;;9.70;100.00
23170;BME280;11753;43.144;24.714;2023-05-02T01:52:01;100011.59;;;9.69;100.00
23170;BME280;11753;43.144;24.714;2023-05-02T01:53:03;100011.59;;;9.69;100.00
23170;BME280;11753;43.144;24.714;2023-05-02T01:54:07;100011.59;;;9.69;100.00
23170;BME280;11753;43.144;24.714;2023-05-02T01:55:11;100014.22;;;9.69;100.00
23170;BME280;11753;43.144;24.714;2023-05-02T01:56:16;100012.28;;;9.71;100.00
23170;BME280;11753;43.144;24.714;2023-05-02T01:57:19;100014.91;;;9.71;100.00
23170;BME280;11753;43.144;24.714;2023-05-02T01:58:21;100011.34;;;9.72;100.00
23170;BME280;11753;43.144;24.714;2023-05-02T01:59:25;100016.59;;;9.72;100.00
23170;BME280;11753;43.144;24.714;2023-05-02T02:00:28;100012.72;;;9.67;100.00
23170;BME280;11753;43.144;24.714;2023-05-02T02:01:29;100016.28;;;9.56;100.00
23170;BME280;11753;43.144;24.714;2023-05-02T02:02:31;100015.22;;;9.58;100.00
23170;BME280;11753;43.144;24.714;2023-05-02T02:03:35;100012.69;;;9.57;100.00
23170;BME280;11753;43.144;24.714;2023-05-02T02:04:37;100018.63;;;9.49;100.00
23170;BME280;11753;43.144;24.714;2023-05-02T02:05:40;100020.44;;;9.49;100.00
23170;BME280;11753;43.144;24.714;2023-05-02T02:06:45;100011.56;;;9.40;100.00
23170;BME280;11753;43.144;24.714;2023-05-02T02:07:47;100016.56;;;9.43;100.00
23170;BME280;11753;43.144;24.714;2023-05-02T02:08:49;100016.97;;;9.48;100.00
23170;BME280;11753;43.144;24.714;2023-05-02T02:09:50;100017.94;;;9.47;100.00
23170;BME280;11753;43.144;24.714;2023-05-02T02:10:58;100020.72;;;9.46;100.00
23170;BME280;11753;43.144;24.714;2023-05-02T02:12:11;100019.06;;;9.45;100.00
23170;BME280;11753;43.144;24.714;2023-05-02T02:13:18;100012.16;;;9.53;100.00
23170;BME280;11753;43.144;24.714;2023-05-02T02:14:25;100014.91;;;9.52;100.00
23170;BME280;11753;43.144;24.714;2023-05-02T02:15:27;100011.03;;;9.56;100.00
23170;BME280;11753;43.144;24.714;2023-05-02T02:16:32;100018.22;;;9.54;100.00
23170;BME280;11753;43.144;24.714;2023-05-02T02:17:39;100009.38;;;9.55;100.00
23170;BME280;11753;43.144;24.714;2023-05-02T02:18:43;100015.06;;;9.50;100.00
23170;BME280;11753;43.144;24.714;2023-05-02T02:19:45;100005.50;;;9.49;100.00
23170;BME280;11753;43.144;24.714;2023-05-02T02:20:47;100012.84;;;9.55;100.00
23170;BME280;11753;43.144;24.714;2023-05-02T02:21:50;99999.44;;;9.58;100.00
23170;BME280;11753;43.144;24.714;2023-05-02T02:22:52;100011.88;;;9.66;100.00
23170;BME280;11753;43.144;24.714;2023-05-02T02:23:56;100000.53;;;9.65;100.00
23170;BME280;11753;43.144;24.714;2023-05-02T02:25:00;100002.47;;;9.73;100.00
23170;BME280;11753;43.144;24.714;2023-05-02T02:26:01;100009.09;;;9.77;100.00
23170;BME280;11753;43.144;24.714;2023-05-02T02:27:03;100016.03;;;9.78;100.00
23170;BME280;11753;43.144;24.714;2023-05-02T02:28:06;100009.94;;;9.78;100.00
23170;BME280;11753;43.144;24.714;2023-05-02T02:29:07;100013.00;;;9.83;100.00
23170;BME280;11753;43.144;24.714;2023-05-02T02:30:08;100017.41;;;9.82;100.00
23170;BME280;11753;43.144;24.714;2023-05-02T02:31:10;100014.09;;;9.80;100.00
23170;BME280;11753;43.144;24.714;2023-05-02T02:32:11;100007.47;;;9.86;100.00
23170;BME280;11753;43.144;24.714;2023-05-02T02:33:12;100014.38;;;9.87;100.00
23170;BME280;11753;43.144;24.714;2023-05-02T02:34:13;100020.47;;;9.87;100.00
23170;BME280;11753;43.144;24.714;2023-05-02T02:35:14;100010.50;;;9.91;100.00
23170;BME280;11753;43.144;24.714;2023-05-02T02:36:29;100021.72;;;9.93;100.00
23170;BME280;11753;43.144;24.714;2023-05-02T02:37:38;100023.78;;;9.89;100.00
23170;BME280;11753;43.144;24.714;2023-05-02T02:38:53;100020.75;;;9.75;100.00
23170;BME280;11753;43.144;24.714;2023-05-02T02:40:06;100020.19;;;9.81;100.00
23170;BME280;11753;43.144;24.714;2023-05-02T02:41:22;100017.72;;;9.79;100.00
23170;BME280;11753;43.144;24.714;2023-05-02T02:42:49;100022.69;;;9.82;100.00
23170;BME280;11753;43.144;24.714;2023-05-02T02:52:02;100015.22;;;9.87;100.00
23170;BME280;11753;43.144;24.714;2023-05-02T02:53:16;100015.47;;;9.84;100.00
23170;BME280;11753;43.144;24.714;2023-05-02T02:56:47;100009.41;;;9.74;100.00
23170;BME280;11753;43.144;24.714;2023-05-02T02:57:59;100011.72;;;9.77;100.00
23170;BME280;11753;43.144;24.714;2023-05-02T02:59:26;100016.03;;;9.78;100.00
23170;BME280;11753;43.144;24.714;2023-05-02T03:00:28;100012.03;;;9.74;100.00
23170;BME280;11753;43.144;24.714;2023-05-02T03:01:32;100014.38;;;9.77;100.00
23170;BME280;11753;43.144;24.714;2023-05-02T03:02:34;100021.03;;;9.72;100.00
23170;BME280;11753;43.144;24.714;2023-05-02T03:03:38;100018.22;;;9.63;100.00
23170;BME280;11753;43.144;24.714;2023-05-02T03:04:40;100016.03;;;9.59;100.00
23170;BME280;11753;43.144;24.714;2023-05-02T03:05:43;100011.88;;;9.66;100.00
23170;BME280;11753;43.144;24.714;2023-05-02T03:06:43;100016.31;;;9.65;100.00
23170;BME280;11753;43.144;24.714;2023-05-02T03:07:44;100018.38;;;9.62;100.00
23170;BME280;11753;43.144;24.714;2023-05-02T03:08:45;100016.03;;;9.59;100.00
23170;BME280;11753;43.144;24.714;2023-05-02T03:09:46;100013.41;;;9.59;100.00
23170;BME280;11753;43.144;24.714;2023-05-02T03:10:47;100021.00;;;9.52;100.00
23170;BME280;11753;43.144;24.714;2023-05-02T03:11:47;100020.03;;;9.44;100.00
23170;BME280;11753;43.144;24.714;2023-05-02T03:12:48;100028.31;;;9.49;100.00
23170;BME280;11753;43.144;24.714;2023-05-02T03:13:48;100031.38;;;9.54;100.00
23170;BME280;11753;43.144;24.714;2023-05-02T03:14:50;100033.56;;;9.49;100.00
23170;BME280;11753;43.144;24.714;2023-05-02T03:16:00;100035.09;;;9.42;100.00
23170;BME280;11753;43.144;24.714;2023-05-02T03:17:09;100028.31;;;9.39;100.00
23170;BME280;11753;43.144;24.714;2023-05-02T03:18:10;100034.94;;;9.33;100.00
23170;BME280;11753;43.144;24.714;2023-05-02T03:19:10;100030.94;;;9.39;100.00
23170;BME280;11753;43.144;24.714;2023-05-02T03:20:11;100031.22;;;9.36;100.00
23170;BME280;11753;43.144;24.714;2023-05-02T03:21:12;100036.19;;;9.29;100.00
23170;BME280;11753;43.144;24.714;2023-05-02T03:22:13;100033.13;;;9.24;100.00
23170;BME280;11753;43.144;24.714;2023-05-02T03:23:13;100036.84;;;9.22;100.00
23170;BME280;11753;43.144;24.714;2023-05-02T03:24:14;100036.72;;;9.23;100.00
23170;BME280;11753;43.144;24.714;2023-05-02T03:25:15;100038.09;;;9.27;100.00
23170;BME280;11753;43.144;24.714;2023-05-02T03:26:16;100027.88;;;9.34;100.00
23170;BME280;11753;43.144;24.714;2023-05-02T03:27:16;100035.91;;;9.32;100.00
23170;BME280;11753;43.144;24.714;2023-05-02T03:28:17;100037.84;;;9.30;100.00
23170;BME280;11753;43.144;24.714;2023-05-02T03:29:18;100045.44;;;9.33;100.00
23170;BME280;11753;43.144;24.714;2023-05-02T03:30:19;100049.19;;;9.41;100.00
23170;BME280;11753;43.144;24.714;2023-05-02T03:31:20;100051.97;;;9.49;100.00
23170;BME280;11753;43.144;24.714;2023-05-02T03:32:21;100045.63;;;9.51;100.00
23170;BME280;11753;43.144;24.714;2023-05-02T03:33:22;100044.81;;;9.51;100.00
23170;BME280;11753;43.144;24.714;2023-05-02T03:34:23;100050.59;;;9.54;100.00
23170;BME280;11753;43.144;24.714;2023-05-02T03:35:24;100056.69;;;9.55;100.00
23170;BME280;11753;43.144;24.714;2023-05-02T03:36:25;100042.84;;;9.53;100.00
23170;BME280;11753;43.144;24.714;2023-05-02T03:37:27;100050.47;;;9.56;100.00
23170;BME280;11753;43.144;24.714;2023-05-02T03:38:30;100045.19;;;9.56;100.00
23170;BME280;11753;43.144;24.714;2023-05-02T03:39:31;100054.50;;;9.60;100.00
23170;BME280;11753;43.144;24.714;2023-05-02T03:40:32;100055.19;;;9.62;100.00
23170;BME280;11753;43.144;24.714;2023-05-02T03:41:33;100048.13;;;9.62;100.00
23170;BME280;11753;43.144;24.714;2023-05-02T03:42:34;100056.44;;;9.68;100.00
23170;BME280;11753;43.144;24.714;2023-05-02T03:43:41;100052.97;;;9.67;100.00
23170;BME280;11753;43.144;24.714;2023-05-02T03:44:42;100059.75;;;9.70;100.00
23170;BME280;11753;43.144;24.714;2023-05-02T03:45:43;100060.03;;;9.76;100.00
23170;BME280;11753;43.144;24.714;2023-05-02T03:46:44;100062.25;;;9.81;99.48
23170;BME280;11753;43.144;24.714;2023-05-02T03:47:45;100067.53;;;9.81;99.36
23170;BME280;11753;43.144;24.714;2023-05-02T03:48:47;100066.41;;;9.83;99.27
23170;BME280;11753;43.144;24.714;2023-05-02T03:49:48;100063.38;;;9.88;99.00
23170;BME280;11753;43.144;24.714;2023-05-02T03:50:49;100071.94;;;9.90;98.80
23170;BME280;11753;43.144;24.714;2023-05-02T03:51:50;100062.25;;;9.90;98.81
23170;BME280;11753;43.144;24.714;2023-05-02T03:52:51;100068.19;;;9.92;98.87
23170;BME280;11753;43.144;24.714;2023-05-02T03:53:53;100063.66;;;9.95;98.65
23170;BME280;11753;43.144;24.714;2023-05-02T03:54:54;100068.47;;;9.99;98.59
23170;BME280;11753;43.144;24.714;2023-05-02T03:55:55;100064.34;;;9.97;98.60
23170;BME280;11753;43.144;24.714;2023-05-02T03:56:56;100068.63;;;9.98;98.23
23170;BME280;11753;43.144;24.714;2023-05-02T03:57:57;100069.88;;;9.93;98.20
23170;BME280;11753;43.144;24.714;2023-05-02T03:58:58;100071.41;;;9.96;98.26
23170;BME280;11753;43.144;24.714;2023-05-02T03:59:59;100067.13;;;9.95;98.17
23170;BME280;11753;43.144;24.714;2023-05-02T04:01:01;100066.41;;;10.03;98.22
23170;BME280;11753;43.144;24.714;2023-05-02T04:02:02;100074.72;;;10.08;97.78
23170;BME280;11753;43.144;24.714;2023-05-02T04:03:05;100070.56;;;9.96;97.79
23170;BME280;11753;43.144;24.714;2023-05-02T04:04:06;100079.81;;;10.00;98.23
23170;BME280;11753;43.144;24.714;2023-05-02T04:05:08;100072.38;;;10.05;98.07
23170;BME280;11753;43.144;24.714;2023-05-02T04:06:09;100077.75;;;10.13;98.05
23170;BME280;11753;43.144;24.714;2023-05-02T04:07:10;100086.34;;;10.15;98.03
23170;BME280;11753;43.144;24.714;2023-05-02T04:08:17;100076.94;;;10.22;97.79
23170;BME280;11753;43.144;24.714;2023-05-02T04:09:18;100077.66;;;10.24;97.60
23170;BME280;11753;43.144;24.714;2023-05-02T04:10:24;100076.13;;;10.31;97.19
23170;BME280;11753;43.144;24.714;2023-05-02T04:11:25;100074.75;;;10.37;97.00
23170;BME280;11753;43.144;24.714;2023-05-02T04:12:27;100085.69;;;10.32;96.67
23170;BME280;11753;43.144;24.714;2023-05-02T04:13:27;100075.56;;;10.37;96.69
23170;BME280;11753;43.144;24.714;2023-05-02T04:14:28;100079.28;;;10.44;96.40
23170;BME280;11753;43.144;24.714;2023-05-02T04:15:30;100074.41;;;10.50;96.18
23170;BME280;11753;43.144;24.714;2023-05-02T04:16:31;100080.91;;;10.55;96.18
23170;BME280;11753;43.144;24.714;2023-05-02T04:17:32;100075.91;;;10.62;95.91
23170;BME280;11753;43.144;24.714;2023-05-02T04:18:32;100079.94;;;10.66;95.72
23170;BME280;11753;43.144;24.714;2023-05-02T04:19:34;100073.81;;;10.75;95.24
23170;BME280;11753;43.144;24.714;2023-05-02T04:20:35;100074.78;;;10.74;94.58
23170;BME280;11753;43.144;24.714;2023-05-02T04:21:36;100074.63;;;10.75;94.37
23170;BME280;11753;43.144;24.714;2023-05-02T04:22:37;100072.94;;;10.84;94.18
23170;BME280;11753;43.144;24.714;2023-05-02T04:23:39;100070.03;;;10.87;93.76
23170;BME280;11753;43.144;24.714;2023-05-02T04:24:40;100074.03;;;10.91;93.54
23170;BME280;11753;43.144;24.714;2023-05-02T04:25:40;100070.13;;;10.95;93.36
23170;BME280;11753;43.144;24.714;2023-05-02T04:26:41;100065.94;;;11.02;93.21
23170;BME280;11753;43.144;24.714;2023-05-02T04:27:42;100069.00;;;11.08;92.99
23170;BME280;11753;43.144;24.714;2023-05-02T04:28:42;100063.09;;;11.14;92.53
23170;BME280;11753;43.144;24.714;2023-05-02T04:29:47;100068.13;;;11.07;91.83
23170;BME280;11753;43.144;24.714;2023-05-02T04:30:49;100066.44;;;11.16;92.18
23170;BME280;11753;43.144;24.714;2023-05-02T04:31:50;100064.88;;;11.23;91.85
23170;BME280;11753;43.144;24.714;2023-05-02T04:32:50;100061.94;;;11.26;91.54
23170;BME280;11753;43.144;24.714;2023-05-02T04:33:52;100069.44;;;11.30;91.19
23170;BME280;11753;43.144;24.714;2023-05-02T04:34:53;100073.16;;;11.28;90.96
23170;BME280;11753;43.144;24.714;2023-05-02T04:35:54;100069.22;;;11.42;90.74
23170;BME280;11753;43.144;24.714;2023-05-02T04:36:55;100074.63;;;11.40;90.46
23170;BME280;11753;43.144;24.714;2023-05-02T04:37:56;100069.94;;;11.34;91.04
23170;BME280;11753;43.144;24.714;2023-05-02T04:38:57;100074.72;;;11.48;90.81
23170;BME280;11753;43.144;24.714;2023-05-02T04:39:58;100063.66;;;11.45;90.02
23170;BME280;11753;43.144;24.714;2023-05-02T04:40:59;100073.47;;;11.52;89.98
23170;BME280;11753;43.144;24.714;2023-05-02T04:42:01;100070.16;;;11.50;89.95
23170;BME280;11753;43.144;24.714;2023-05-02T04:43:02;100069.53;;;11.56;89.68
23170;BME280;11753;43.144;24.714;2023-05-02T04:44:03;100071.31;;;11.66;89.74
23170;BME280;11753;43.144;24.714;2023-05-02T04:45:04;100061.72;;;11.65;89.33
23170;BME280;11753;43.144;24.714;2023-05-02T04:46:06;100070.16;;;11.68;89.24
23170;BME280;11753;43.144;24.714;2023-05-02T04:47:07;100075.50;;;11.76;88.88
23170;BME280;11753;43.144;24.714;2023-05-02T04:48:08;100070.50;;;11.83;88.71
23170;BME280;11753;43.144;24.714;2023-05-02T04:49:09;100073.22;;;11.91;88.40
23170;BME280;11753;43.144;24.714;2023-05-02T04:50:10;100072.63;;;11.97;88.11
23170;BME280;11753;43.144;24.714;2023-05-02T04:51:11;100074.50;;;12.05;87.75
23170;BME280;11753;43.144;24.714;2023-05-02T04:52:12;100069.28;;;12.13;87.40
23170;BME280;11753;43.144;24.714;2023-05-02T04:53:14;100061.06;;;12.16;86.89
23170;BME280;11753;43.144;24.714;2023-05-02T04:54:15;100065.88;;;12.21;86.70
23170;BME280;11753;43.144;24.714;2023-05-02T04:55:17;100074.56;;;12.31;86.33
23170;BME280;11753;43.144;24.714;2023-05-02T04:56:18;100072.28;;;12.36;86.32
23170;BME280;11753;43.144;24.714;2023-05-02T04:57:19;100076.66;;;12.45;85.72
23170;BME280;11753;43.144;24.714;2023-05-02T04:58:20;100069.09;;;12.50;85.72
23170;BME280;11753;43.144;24.714;2023-05-02T04:59:21;100065.47;;;12.51;85.41
23170;BME280;11753;43.144;24.714;2023-05-02T05:00:22;100068.16;;;12.59;85.04
23170;BME280;11753;43.144;24.714;2023-05-02T05:01:23;100065.88;;;12.64;84.83
23170;BME280;11753;43.144;24.714;2023-05-02T05:02:24;100069.56;;;12.72;84.68
23170;BME280;11753;43.144;24.714;2023-05-02T05:03:26;100070.72;;;12.77;84.49
23170;BME280;11753;43.144;24.714;2023-05-02T05:04:29;100071.75;;;12.84;84.19
23170;BME280;11753;43.144;24.714;2023-05-02T05:05:30;100062.00;;;12.85;84.08
23170;BME280;11753;43.144;24.714;2023-05-02T05:06:31;100065.56;;;12.93;84.06
23170;BME280;11753;43.144;24.714;2023-05-02T05:07:32;100065.75;;;13.00;83.54
23170;BME280;11753;43.144;24.714;2023-05-02T05:08:34;100069.75;;;13.12;82.06
23170;BME280;11753;43.144;24.714;2023-05-02T05:09:35;100076.38;;;13.16;81.78
23170;BME280;11753;43.144;24.714;2023-05-02T05:10:36;100074.75;;;13.15;81.66
23170;BME280;11753;43.144;24.714;2023-05-02T05:11:37;100074.41;;;13.18;82.04
23170;BME280;11753;43.144;24.714;2023-05-02T05:12:39;100059.25;;;13.20;81.82
23170;BME280;11753;43.144;24.714;2023-05-02T05:13:40;100066.53;;;13.27;81.79
23170;BME280;11753;43.144;24.714;2023-05-02T05:14:42;100070.56;;;13.39;81.47
23170;BME280;11753;43.144;24.714;2023-05-02T05:15:44;100079.16;;;13.49;80.78
23170;BME280;11753;43.144;24.714;2023-05-02T05:16:47;100064.00;;;13.51;80.62
23170;BME280;11753;43.144;24.714;2023-05-02T05:17:48;100074.41;;;13.61;80.34
23170;BME280;11753;43.144;24.714;2023-05-02T05:18:49;100065.84;;;13.67;80.17
23170;BME280;11753;43.144;24.714;2023-05-02T05:19:51;100066.31;;;13.70;79.72
23170;BME280;11753;43.144;24.714;2023-05-02T05:20:51;100065.03;;;13.74;79.86
23170;BME280;11753;43.144;24.714;2023-05-02T05:21:52;100066.03;;;13.82;79.30
23170;BME280;11753;43.144;24.714;2023-05-02T05:22:53;100064.56;;;13.87;79.14
23170;BME280;11753;43.144;24.714;2023-05-02T05:23:54;100063.03;;;13.76;78.67
23170;BME280;11753;43.144;24.714;2023-05-02T05:24:55;100070.03;;;13.94;78.64
23170;BME280;11753;43.144;24.714;2023-05-02T05:25:56;100065.72;;;14.01;78.25
23170;BME280;11753;43.144;24.714;2023-05-02T05:26:57;100074.66;;;14.08;78.11
23170;BME280;11753;43.144;24.714;2023-05-02T05:27:59;100066.72;;;14.16;77.77
23170;BME280;11753;43.144;24.714;2023-05-02T05:28:59;100068.72;;;14.22;77.39
23170;BME280;11753;43.144;24.714;2023-05-02T05:30:00;100069.53;;;14.31;76.90
23170;BME280;11753;43.144;24.714;2023-05-02T05:31:13;100069.19;;;14.34;76.59
23170;BME280;11753;43.144;24.714;2023-05-02T05:32:17;100068.69;;;14.39;76.37
23170;BME280;11753;43.144;24.714;2023-05-02T05:33:18;100068.69;;;14.39;76.26
23170;BME280;11753;43.144;24.714;2023-05-02T05:34:19;100070.84;;;14.43;76.05
23170;BME280;11753;43.144;24.714;2023-05-02T05:35:20;100081.97;;;14.47;75.64
23170;BME280;11753;43.144;24.714;2023-05-02T05:36:21;100067.72;;;14.48;75.38
23170;BME280;11753;43.144;24.714;2023-05-02T05:37:21;100082.94;;;14.54;75.47
23170;BME280;11753;43.144;24.714;2023-05-02T05:38:22;100073.69;;;14.58;75.25
23170;BME280;11753;43.144;24.714;2023-05-02T05:39:23;100083.91;;;14.69;74.84
23170;BME280;11753;43.144;24.714;2023-05-02T05:40:24;100077.13;;;14.75;74.41